LFACLFQQ

Guest
Details From LFAC - Calais Dunkerque
To LFQQ - Lille Lesquin
Flight Number -
Tags generated
Created
Modified
Stats Distance 53 nm / 98 km
Max Altitude 2,300 ft / 701 m
Waypoints 3
Social Downloads 12
Likes 0
Share

Download

Looking for another format? Having issues loading an existing format? Contact us
Advertisement - Login to hide

Notes

Basic altitude profile: - Ascent Rate: 2500ft/min - Ascent Speed: 250kts - Cruise Altitude: 25000ft - Cruise Speed: 500kts - Descent Rate: 750ft/min - Descent Speed: 250kts Options: - Use NATs: yes - Use PACOTS: yes - Use low airways: yes - Use high airways: yes

Route

LFAC TRACA LFQQ

ID Type Via Altitude (ft/m) Position (lat/lon) Dist (leg/tot) Name
O LFAC APT - 0 / 0 50.96210 / 1.95471 - / 0 nm Calais Dunkerque
TRACA FIX - 2,300 / 701 50.85167 / 1.96833 6 / 6 nm
O LFQQ APT - 0 / 0 50.56633 / 3.09538 46 / 52 nm Lille Lesquin

Altitude Profile

Advertisement - Login to hide

LFAC

Details ICAO LFAC (CQF)
Name Calais Dunkerque
Region France
Timezone Europe/Paris (UTC+2.0)
Stats Elevation 13 ft / 4 m (AMSL)
Location 50.962100° 1.954760°
Runways 1
Magnetic Variation 0.786° E

METAR

LFAC 080800Z AUTO 16011KT 9999 -RA FEW020/// SCT046/// OVC074/// ///TCU 09/08 Q1010

Decode

TAF

Not found

Departure Runways

ID Width Length Bearing (true/mag) Surface Threshold Overrun Markings Lighting
06 148 ft / 45 m 5,041 ft / 1,536 m 60.96° / 60.18° ASPHALT 0 ft / 0 m 0 ft / 0 m APP EDGE THRESHOLD REIL-OMNI
24 148 ft / 45 m 5,041 ft / 1,536 m 240.98° / 240.19° ASPHALT 0 ft / 0 m 0 ft / 0 m PREC-APP EDGE THRESHOLD ALSF-I

LFQQ

Details ICAO LFQQ (LIL)
Name Lille Lesquin
Region France
Timezone Europe/Paris (UTC+2.0)
Stats Elevation 154 ft / 47 m (AMSL)
Location 50.566300° 3.095390°
Runways 2
Magnetic Variation 1.173° E

METAR

LFQQ 080800Z AUTO 14010KT 9999 -RA SCT034 BKN040 OVC048 08/06 Q1012 TEMPO 3000 RA

Decode

TAF

TAF LFQQ 080500Z 0806/0912 15012KT 9999 OVC040 TEMPO 0806/0810 3000 RA BECMG 0810/0812 21015G25KT BECMG 0816/0819 16008KT TEMPO 0906/0912 SCT090CB

Decode

Destination Runways

ID Width Length Bearing (true/mag) Surface Threshold Overrun Markings Lighting
02 98 ft / 30 m 5,172 ft / 1,576 m 14.83° / 13.66° ASPHALT 0 ft / 0 m 0 ft / 0 m APP EDGE THRESHOLD
08 146 ft / 45 m 9,250 ft / 2,819 m 77.36° / 76.18° ASPHALT 0 ft / 0 m 0 ft / 0 m PREC-APP CENTERLINE EDGE THRESHOLD CALVERT-ILS REIL-OMNI
20 98 ft / 30 m 5,172 ft / 1,576 m 194.84° / 193.66° ASPHALT 0 ft / 0 m 0 ft / 0 m APP EDGE THRESHOLD
26 146 ft / 45 m 9,250 ft / 2,819 m 257.39° / 256.21° ASPHALT 919 ft / 280 m 0 ft / 0 m PREC-APP CENTERLINE EDGE THRESHOLD CALVERT-ILS TDZ

Approach Navaids

Runway Type Ident Frequency Range Bearing (true/mag) Slope Elevation
08 LOC-ILS LL 110.10 MHz 18 nm / 33 km 77.13° / 75.96 ° - 135 ft / 41 m (AMSL)
26 LOC-ILS LIL 110.75 MHz 18 nm / 33 km 257.13° / 255.96 ° - 157 ft / 48 m (AMSL)
26 GS LIL 110.75 MHz 10 nm / 19 km 257.00° / 255.83 ° 3.00° 129 ft / 39 m (AMSL)

Popular Alternatives